PILOTS ONLINE: 336    ATC ONLINE: 58

KFOE

Forbes Field

Location

IATA FOE
City Topeka
Country  United States
Latitude 38° 57' 3" N
Longitude 95° 39' 48" W
Elevation 1078 ft
Type Medium Airport

Map

Weather

METAR
2014/10/23 20:53
KFOE 232053Z 18007KT 10SM FEW018 SCT025 21/16 A3004 RMK AO2 SLP166 T02060161 56015
TAF
2014/10/23 21:12
TAF 
      AMD KFOE 232111Z 2321/2418 19006KT P6SM SCT035 
     FM240600 18005KT 5SM BR BKN025

Runways

03/21 7000 ft / 150 ft
13/31 12802 ft / 200 ft

Outbound flights

Callsign Flying to Pilot ATD/STD ETA Aircraft

Inbound flights

Callsign Flying from Pilot ATD ETA Aircraft